createdAt,value
2023-02-06T00:01:37.937Z,-5.80
2023-02-06T00:04:06.124Z,-5.70
2023-02-06T00:06:34.596Z,-5.80
2023-02-06T00:09:04.536Z,-5.80
2023-02-06T00:16:31.064Z,-5.80
2023-02-06T00:19:00.605Z,-5.90
2023-02-06T00:21:29.848Z,-5.90
2023-02-06T00:23:59.955Z,-6.00
2023-02-06T00:26:31.153Z,-6.00
2023-02-06T00:43:50.773Z,-6.10
2023-02-06T00:48:47.078Z,-6.10
2023-02-06T01:01:09.725Z,-6.30
2023-02-06T01:18:29.322Z,-6.40
2023-02-06T01:35:56.245Z,-6.70
2023-02-06T01:40:57.285Z,-6.80
2023-02-06T01:48:27.638Z,-6.90
2023-02-06T01:50:58.230Z,-6.90
2023-02-06T01:55:56.084Z,-6.80
2023-02-06T01:58:28.480Z,-6.70
2023-02-06T02:00:58.589Z,-6.60
2023-02-06T02:03:27.665Z,-6.70
2023-02-06T02:06:00.920Z,-6.70
2023-02-06T02:08:34.770Z,-6.70
2023-02-06T02:11:04.642Z,-6.80
2023-02-06T02:16:08.555Z,-6.60
2023-02-06T02:18:52.241Z,-6.60
2023-02-06T02:21:53.745Z,-6.60
2023-02-06T02:24:32.365Z,-6.70
2023-02-06T02:27:38.072Z,-6.80
2023-02-06T02:30:51.173Z,-6.90
2023-02-06T02:33:36.461Z,-6.90
2023-02-06T02:36:14.755Z,-6.80
2023-02-06T02:38:54.964Z,-6.90
2023-02-06T02:41:28.571Z,-7.00
2023-02-06T02:47:50.616Z,-6.90
2023-02-06T02:50:19.970Z,-7.00
2023-02-06T02:52:49.519Z,-7.00
2023-02-06T02:55:21.070Z,-7.00
2023-02-06T02:57:52.342Z,-7.10
2023-02-06T03:00:24.554Z,-7.20
2023-02-06T03:02:55.174Z,-7.20
2023-02-06T03:05:25.825Z,-7.20
2023-02-06T03:08:06.505Z,-7.30
2023-02-06T03:10:40.377Z,-7.30
2023-02-06T03:13:16.294Z,-7.30
2023-02-06T03:15:50.712Z,-7.30
2023-02-06T03:18:23.126Z,-7.30
2023-02-06T03:23:25.771Z,-7.30
2023-02-06T03:25:57.382Z,-7.40
2023-02-06T03:28:29.643Z,-7.30
2023-02-06T03:31:01.583Z,-7.30
2023-02-06T03:33:37.089Z,-7.40
2023-02-06T03:38:35.537Z,-7.60
2023-02-06T03:41:04.672Z,-7.60
2023-02-06T03:46:06.082Z,-7.70
2023-02-06T03:48:36.586Z,-7.70
2023-02-06T03:51:08.220Z,-7.80
2023-02-06T03:53:39.657Z,-7.80
2023-02-06T03:56:13.138Z,-6.80
2023-02-06T04:16:02.329Z,-7.80
2023-02-06T04:21:05.158Z,-7.90
2023-02-06T04:28:31.293Z,-7.90
2023-02-06T04:45:50.780Z,-9.20
2023-02-06T04:58:12.720Z,-8.10
2023-02-06T05:03:12.539Z,-8.10
2023-02-06T05:20:32.672Z,-8.10
2023-02-06T05:37:52.801Z,-8.20
2023-02-06T05:55:12.131Z,-8.40
2023-02-06T06:00:09.777Z,-8.40
2023-02-06T06:07:35.027Z,-8.40
2023-02-06T06:10:03.072Z,-8.50
2023-02-06T06:12:32.549Z,-8.40
2023-02-06T06:24:53.778Z,-8.40
2023-02-06T06:29:51.385Z,-8.40
2023-02-06T06:32:20.277Z,-8.50
2023-02-06T06:47:11.713Z,-8.10
2023-02-06T07:02:19.172Z,-7.70
2023-02-06T07:14:41.203Z,-7.30
2023-02-06T07:19:39.176Z,-7.20
2023-02-06T07:37:00.001Z,-6.40
2023-02-06T07:54:20.967Z,-5.30
2023-02-06T08:06:43.829Z,-4.70
2023-02-06T08:09:13.432Z,-4.50
2023-02-06T08:11:42.809Z,-4.30
2023-02-06T08:14:10.824Z,-4.10
2023-02-06T08:29:08.441Z,-3.10
2023-02-06T08:31:38.726Z,-3.10
2023-02-06T08:39:05.472Z,-2.60
2023-02-06T08:41:37.082Z,-2.60
2023-02-06T08:44:11.641Z,-2.60
2023-02-06T08:46:40.585Z,-2.70
2023-02-06T08:49:11.746Z,-2.50
2023-02-06T08:54:13.667Z,-2.30
2023-02-06T08:59:13.302Z,-2.00
2023-02-06T09:04:11.593Z,-1.70
2023-02-06T09:06:41.817Z,-1.40
2023-02-06T09:09:10.995Z,-1.00
2023-02-06T09:11:39.959Z,-1.00
2023-02-06T09:14:09.647Z,-1.00
2023-02-06T09:16:39.033Z,-0.70
2023-02-06T09:21:37.330Z,-0.90
2023-02-06T09:24:07.705Z,-0.90
2023-02-06T09:26:44.872Z,-0.70
2023-02-06T09:31:51.309Z,-0.10
2023-02-06T09:36:47.671Z,0.20
2023-02-06T09:39:15.646Z,0.40
2023-02-06T09:41:46.558Z,0.40
2023-02-06T09:44:19.412Z,0.50
2023-02-06T09:46:54.068Z,0.30
2023-02-06T09:49:25.976Z,0.20
2023-02-06T09:52:18.082Z,0.40
2023-02-06T09:54:52.615Z,0.50
2023-02-06T09:57:29.185Z,0.40
2023-02-06T10:00:01.085Z,0.50
2023-02-06T10:02:47.708Z,0.50
2023-02-06T10:05:24.974Z,0.40
2023-02-06T10:08:03.385Z,0.20
2023-02-06T10:10:38.379Z,-0.10
2023-02-06T10:13:12.705Z,-0.30
2023-02-06T10:15:46.275Z,-0.50
2023-02-06T10:18:22.471Z,-0.30
2023-02-06T10:20:54.544Z,-0.30
2023-02-06T10:23:26.946Z,-0.30
2023-02-06T10:26:05.570Z,-0.40
2023-02-06T10:28:35.611Z,-0.30
2023-02-06T10:31:17.100Z,-0.10
2023-02-06T10:33:58.537Z,-0.10
2023-02-06T10:36:38.337Z,-0.30
2023-02-06T10:39:32.836Z,-0.30
2023-02-06T10:42:13.334Z,-0.30
2023-02-06T10:44:51.381Z,-0.30
2023-02-06T10:47:29.374Z,-0.30
2023-02-06T10:50:03.947Z,-0.30
2023-02-06T10:52:35.382Z,-0.30
2023-02-06T10:55:16.647Z,-0.20
2023-02-06T10:57:46.964Z,-0.30
2023-02-06T11:00:22.811Z,-0.40
2023-02-06T11:03:06.805Z,-0.30
2023-02-06T11:05:38.457Z,-0.40
2023-02-06T11:08:14.980Z,-0.50
2023-02-06T11:13:16.933Z,-0.50
2023-02-06T11:15:53.026Z,-0.30
2023-02-06T11:18:25.016Z,-0.30
2023-02-06T11:20:56.071Z,-0.10
2023-02-06T11:23:26.109Z,0.10
2023-02-06T11:26:06.074Z,0.50
2023-02-06T11:28:35.576Z,0.70
2023-02-06T11:31:06.199Z,0.90
2023-02-06T11:33:49.219Z,0.70
2023-02-06T11:36:29.517Z,0.50
2023-02-06T11:38:59.522Z,0.60
2023-02-06T11:44:02.613Z,1.10
2023-02-06T11:46:32.471Z,1.20
2023-02-06T11:49:24.588Z,1.60
2023-02-06T11:51:55.424Z,1.90
2023-02-06T11:54:28.436Z,2.60
2023-02-06T11:56:59.038Z,3.20
2023-02-06T11:59:27.517Z,3.40
2023-02-06T12:01:55.687Z,3.80
2023-02-06T12:04:27.054Z,4.00
2023-02-06T12:07:02.091Z,3.90
2023-02-06T12:09:30.198Z,4.30
2023-02-06T12:12:01.817Z,4.40
2023-02-06T12:14:38.251Z,3.60
2023-02-06T12:17:22.691Z,3.40
2023-02-06T12:19:56.623Z,3.10
2023-02-06T12:22:26.839Z,3.00
2023-02-06T12:24:57.578Z,2.80
2023-02-06T12:27:30.306Z,2.80
2023-02-06T12:30:02.551Z,2.60
2023-02-06T12:32:35.609Z,2.60
2023-02-06T12:35:16.809Z,2.50
2023-02-06T12:37:53.477Z,2.30
2023-02-06T12:40:35.439Z,2.30
2023-02-06T12:43:08.027Z,2.00
2023-02-06T12:45:44.932Z,1.80
2023-02-06T12:48:18.103Z,1.90
2023-02-06T12:50:52.571Z,1.80
2023-02-06T12:53:27.353Z,1.70
2023-02-06T12:56:00.758Z,1.70
2023-02-06T12:58:33.174Z,1.60
2023-02-06T13:01:31.125Z,1.60
2023-02-06T13:04:04.487Z,1.50
2023-02-06T13:06:48.877Z,1.40
2023-02-06T13:09:25.202Z,1.30
2023-02-06T13:14:24.816Z,1.20
2023-02-06T13:16:55.789Z,1.10
2023-02-06T13:19:51.711Z,1.00
2023-02-06T13:22:39.493Z,1.00
2023-02-06T13:25:44.241Z,1.00
2023-02-06T13:28:42.689Z,1.00
2023-02-06T13:31:24.278Z,1.00
2023-02-06T13:33:54.854Z,0.90
2023-02-06T13:36:28.586Z,0.90
2023-02-06T13:38:57.481Z,0.80
2023-02-06T13:41:31.111Z,0.80
2023-02-06T13:44:05.309Z,0.80
2023-02-06T13:46:45.113Z,0.70
2023-02-06T13:49:39.480Z,0.60
2023-02-06T13:52:16.332Z,0.60
2023-02-06T13:55:00.210Z,0.60
2023-02-06T13:57:40.640Z,0.60
2023-02-06T14:00:16.533Z,0.60
2023-02-06T14:02:48.472Z,0.60
2023-02-06T14:05:21.077Z,0.60
2023-02-06T14:08:00.752Z,0.60
2023-02-06T14:10:53.705Z,0.60
2023-02-06T14:13:35.717Z,0.60
2023-02-06T14:16:19.548Z,0.60
2023-02-06T14:18:51.535Z,0.60
2023-02-06T14:21:37.481Z,0.60
2023-02-06T14:24:28.018Z,0.60
2023-02-06T14:27:09.848Z,0.50
2023-02-06T14:29:46.515Z,0.50
2023-02-06T14:32:32.649Z,0.50
2023-02-06T14:35:22.695Z,0.40
2023-02-06T14:38:18.192Z,0.30
2023-02-06T14:40:51.705Z,0.30
2023-02-06T14:43:23.733Z,0.10
2023-02-06T14:46:06.196Z,0.20
2023-02-06T14:48:39.752Z,-1.20
2023-02-06T14:51:09.307Z,0.20
2023-02-06T14:53:38.929Z,0.20
2023-02-06T14:56:09.492Z,0.20
2023-02-06T15:01:21.329Z,0.10
2023-02-06T15:03:54.709Z,0.10
2023-02-06T15:06:32.958Z,0.10
2023-02-06T15:11:33.463Z,0.00
2023-02-06T15:14:03.079Z,0.00
2023-02-06T15:19:17.873Z,0.00
2023-02-06T15:24:32.829Z,-0.10
2023-02-06T15:27:06.592Z,-0.20
2023-02-06T15:32:07.690Z,-0.30
2023-02-06T15:34:37.893Z,-0.30
2023-02-06T15:37:22.122Z,-0.40
2023-02-06T15:42:35.278Z,-0.40
2023-02-06T15:45:16.475Z,-0.50
2023-02-06T15:47:47.905Z,-0.50
2023-02-06T15:50:26.058Z,-0.50
2023-02-06T15:53:18.697Z,-0.50
2023-02-06T15:55:53.583Z,-0.60
2023-02-06T16:00:54.313Z,-0.60
2023-02-06T16:03:24.325Z,-0.60
2023-02-06T16:05:56.430Z,-0.70
2023-02-06T16:08:28.020Z,-0.70
2023-02-06T16:11:00.595Z,-0.70
2023-02-06T16:13:31.643Z,-0.80
2023-02-06T16:16:06.919Z,-0.80
2023-02-06T16:18:36.601Z,-0.80
2023-02-06T16:21:31.129Z,-0.80
2023-02-06T16:24:17.978Z,-0.90
2023-02-06T16:26:48.140Z,-0.90
2023-02-06T16:29:24.644Z,-1.00
2023-02-06T16:31:59.623Z,-1.00
2023-02-06T16:34:35.480Z,-0.90
2023-02-06T16:47:15.522Z,-1.00
2023-02-06T16:52:18.983Z,-1.00
2023-02-06T16:57:22.702Z,-1.00
2023-02-06T17:07:23.969Z,-1.00
2023-02-06T17:12:23.435Z,-1.10
2023-02-06T17:17:21.708Z,-1.10
2023-02-06T17:24:48.658Z,-1.10
2023-02-06T17:27:19.098Z,-1.10
2023-02-06T17:34:50.958Z,-1.20
2023-02-06T17:39:53.041Z,-1.20
2023-02-06T17:42:24.211Z,-1.30
2023-02-06T17:57:15.775Z,-1.30
2023-02-06T18:02:14.727Z,-1.40
2023-02-06T18:14:40.639Z,-1.60
2023-02-06T18:17:09.677Z,-1.70
2023-02-06T18:19:42.222Z,-1.80
2023-02-06T18:25:09.746Z,-2.00
2023-02-06T18:30:08.670Z,-2.20
2023-02-06T18:32:39.125Z,-2.30
2023-02-06T18:35:08.609Z,-2.40
2023-02-06T18:45:24.847Z,-2.70
2023-02-06T18:47:53.958Z,-2.70
2023-02-06T18:55:20.013Z,-3.00
2023-02-06T19:00:18.447Z,-3.10
2023-02-06T19:02:48.479Z,-3.20
2023-02-06T19:15:14.881Z,-3.40
2023-02-06T19:20:13.767Z,-3.50
2023-02-06T19:25:14.453Z,-3.70
2023-02-06T19:27:43.011Z,-3.70
2023-02-06T19:30:13.031Z,-3.70
2023-02-06T19:32:41.242Z,-3.70
2023-02-06T19:37:41.716Z,-3.80
2023-02-06T19:42:40.065Z,-3.90
2023-02-06T19:45:08.523Z,-3.90
2023-02-06T19:47:37.186Z,-4.00
2023-02-06T19:52:35.220Z,-4.00
2023-02-06T19:55:04.718Z,-4.00
2023-02-06T20:00:01.288Z,-4.20
2023-02-06T20:07:27.051Z,-4.20
2023-02-06T20:09:55.956Z,-4.30
2023-02-06T20:12:25.523Z,-4.30
2023-02-06T20:29:47.756Z,-4.50
2023-02-06T20:39:45.733Z,-4.60
2023-02-06T20:47:11.862Z,-4.50
2023-02-06T21:04:34.525Z,-5.00
2023-02-06T21:16:58.593Z,-5.20
2023-02-06T21:21:58.852Z,-5.30
2023-02-06T21:37:10.625Z,-5.50
2023-02-06T21:54:34.811Z,-5.80
2023-02-06T22:11:57.169Z,-5.80
2023-02-06T22:29:18.006Z,-5.40
2023-02-06T22:31:48.366Z,-5.40
2023-02-06T22:39:15.138Z,-5.30
2023-02-06T22:41:45.119Z,-5.20
2023-02-06T22:44:16.276Z,-5.30
2023-02-06T22:46:47.707Z,-5.30
2023-02-06T22:51:44.399Z,-5.10
2023-02-06T22:56:42.519Z,-4.90
2023-02-06T22:59:11.588Z,-4.90
2023-02-06T23:01:41.985Z,-4.80
2023-02-06T23:04:14.425Z,-4.80
2023-02-06T23:09:14.125Z,-4.80
2023-02-06T23:14:12.712Z,-4.70
2023-02-06T23:21:40.628Z,-4.80
2023-02-06T23:24:10.875Z,-4.70
2023-02-06T23:26:39.690Z,-4.80
2023-02-06T23:29:09.414Z,-4.80
2023-02-06T23:39:04.954Z,-4.90
2023-02-06T23:41:34.219Z,-4.80
2023-02-06T23:44:05.328Z,-4.90
2023-02-06T23:46:34.643Z,-4.90
2023-02-06T23:56:31.998Z,-5.00
2023-02-06T23:59:01.606Z,-5.00
